sensor_id;sensor_type;location;lat;lon;timestamp;P1;durP1;ratioP1;P2;durP2;ratioP2
49502;SDS011;35409;48.776;9.204;2022-10-16T00:01:46;2.15;;;1.40;;
49502;SDS011;35409;48.776;9.204;2022-10-16T00:04:12;2.90;;;2.00;;
49502;SDS011;35409;48.776;9.204;2022-10-16T00:06:38;2.92;;;2.15;;
49502;SDS011;35409;48.776;9.204;2022-10-16T00:09:04;4.53;;;2.70;;
49502;SDS011;35409;48.776;9.204;2022-10-16T00:11:34;3.75;;;2.42;;
49502;SDS011;35409;48.776;9.204;2022-10-16T00:14:02;3.42;;;2.42;;
49502;SDS011;35409;48.776;9.204;2022-10-16T00:16:31;3.60;;;1.95;;
49502;SDS011;35409;48.776;9.204;2022-10-16T00:18:57;5.18;;;1.98;;
49502;SDS011;35409;48.776;9.204;2022-10-16T00:21:24;3.38;;;2.00;;
49502;SDS011;35409;48.776;9.204;2022-10-16T00:23:51;6.13;;;2.17;;
49502;SDS011;35409;48.776;9.204;2022-10-16T00:26:21;3.10;;;1.50;;
49502;SDS011;35409;48.776;9.204;2022-10-16T00:28:48;6.20;;;1.90;;
49502;SDS011;35409;48.776;9.204;2022-10-16T00:31:15;5.93;;;2.03;;
49502;SDS011;35409;48.776;9.204;2022-10-16T00:33:42;2.58;;;2.20;;
49502;SDS011;35409;48.776;9.204;2022-10-16T00:36:09;8.55;;;1.98;;
49502;SDS011;35409;48.776;9.204;2022-10-16T00:38:36;4.80;;;1.75;;
49502;SDS011;35409;48.776;9.204;2022-10-16T00:41:09;6.28;;;1.65;;
49502;SDS011;35409;48.776;9.204;2022-10-16T00:43:42;7.93;;;1.42;;
49502;SDS011;35409;48.776;9.204;2022-10-16T00:48:49;4.00;;;1.60;;
49502;SDS011;35409;48.776;9.204;2022-10-16T00:51:49;1.48;;;1.23;;
49502;SDS011;35409;48.776;9.204;2022-10-16T00:54:17;2.08;;;1.63;;
49502;SDS011;35409;48.776;9.204;2022-10-16T00:56:46;3.05;;;2.08;;
49502;SDS011;35409;48.776;9.204;2022-10-16T00:59:16;3.55;;;2.30;;
49502;SDS011;35409;48.776;9.204;2022-10-16T01:01:52;2.30;;;2.08;;
49502;SDS011;35409;48.776;9.204;2022-10-16T01:04:19;3.70;;;2.20;;
49502;SDS011;35409;48.776;9.204;2022-10-16T01:09:37;4.18;;;3.10;;
49502;SDS011;35409;48.776;9.204;2022-10-16T01:12:17;4.47;;;3.30;;
49502;SDS011;35409;48.776;9.204;2022-10-16T01:14:53;7.15;;;2.92;;
49502;SDS011;35409;48.776;9.204;2022-10-16T01:17:34;3.28;;;2.60;;
49502;SDS011;35409;48.776;9.204;2022-10-16T01:20:31;4.78;;;2.22;;
49502;SDS011;35409;48.776;9.204;2022-10-16T01:28:57;5.35;;;2.13;;
49502;SDS011;35409;48.776;9.204;2022-10-16T01:31:38;5.32;;;2.45;;
49502;SDS011;35409;48.776;9.204;2022-10-16T01:34:07;8.40;;;2.15;;
49502;SDS011;35409;48.776;9.204;2022-10-16T01:36:42;2.17;;;1.73;;
49502;SDS011;35409;48.776;9.204;2022-10-16T01:39:30;3.72;;;2.13;;
49502;SDS011;35409;48.776;9.204;2022-10-16T01:42:10;6.38;;;1.90;;
49502;SDS011;35409;48.776;9.204;2022-10-16T01:44:40;11.02;;;1.95;;
49502;SDS011;35409;48.776;9.204;2022-10-16T01:47:08;4.03;;;2.03;;
49502;SDS011;35409;48.776;9.204;2022-10-16T01:49:36;1.90;;;1.60;;
49502;SDS011;35409;48.776;9.204;2022-10-16T01:52:05;5.75;;;2.03;;
49502;SDS011;35409;48.776;9.204;2022-10-16T01:54:36;4.78;;;1.65;;
49502;SDS011;35409;48.776;9.204;2022-10-16T01:57:05;1.80;;;1.65;;
49502;SDS011;35409;48.776;9.204;2022-10-16T01:59:33;3.22;;;1.88;;
49502;SDS011;35409;48.776;9.204;2022-10-16T02:04:32;2.65;;;2.13;;
49502;SDS011;35409;48.776;9.204;2022-10-16T02:07:18;1.90;;;1.70;;
49502;SDS011;35409;48.776;9.204;2022-10-16T02:09:44;3.08;;;2.15;;
49502;SDS011;35409;48.776;9.204;2022-10-16T02:12:22;3.58;;;1.88;;
49502;SDS011;35409;48.776;9.204;2022-10-16T02:14:54;2.00;;;1.77;;
49502;SDS011;35409;48.776;9.204;2022-10-16T02:17:20;3.30;;;1.95;;
49502;SDS011;35409;48.776;9.204;2022-10-16T02:19:47;2.20;;;1.98;;
49502;SDS011;35409;48.776;9.204;2022-10-16T02:22:15;3.38;;;1.90;;
49502;SDS011;35409;48.776;9.204;2022-10-16T02:28:00;7.03;;;2.30;;
49502;SDS011;35409;48.776;9.204;2022-10-16T02:30:54;7.88;;;2.22;;
49502;SDS011;35409;48.776;9.204;2022-10-16T02:33:24;4.05;;;2.20;;
49502;SDS011;35409;48.776;9.204;2022-10-16T02:35:51;2.35;;;2.00;;
49502;SDS011;35409;48.776;9.204;2022-10-16T02:38:18;3.47;;;2.05;;
49502;SDS011;35409;48.776;9.204;2022-10-16T02:40:46;5.07;;;2.25;;
49502;SDS011;35409;48.776;9.204;2022-10-16T02:43:12;6.13;;;2.50;;
49502;SDS011;35409;48.776;9.204;2022-10-16T02:45:38;2.70;;;1.88;;
49502;SDS011;35409;48.776;9.204;2022-10-16T02:48:04;2.47;;;2.08;;
49502;SDS011;35409;48.776;9.204;2022-10-16T02:50:30;4.15;;;2.17;;
49502;SDS011;35409;48.776;9.204;2022-10-16T02:52:56;2.97;;;1.88;;
49502;SDS011;35409;48.776;9.204;2022-10-16T02:55:21;3.00;;;1.98;;
49502;SDS011;35409;48.776;9.204;2022-10-16T02:57:47;3.00;;;2.05;;
49502;SDS011;35409;48.776;9.204;2022-10-16T03:00:14;3.22;;;2.40;;
49502;SDS011;35409;48.776;9.204;2022-10-16T03:02:41;4.05;;;2.22;;
49502;SDS011;35409;48.776;9.204;2022-10-16T03:05:06;2.20;;;2.00;;
49502;SDS011;35409;48.776;9.204;2022-10-16T03:07:32;3.08;;;2.38;;
49502;SDS011;35409;48.776;9.204;2022-10-16T03:09:58;2.92;;;2.00;;
49502;SDS011;35409;48.776;9.204;2022-10-16T03:12:25;2.30;;;1.83;;
49502;SDS011;35409;48.776;9.204;2022-10-16T03:14:51;3.63;;;2.38;;
49502;SDS011;35409;48.776;9.204;2022-10-16T03:17:17;2.60;;;1.90;;
49502;SDS011;35409;48.776;9.204;2022-10-16T03:19:42;5.35;;;1.95;;
49502;SDS011;35409;48.776;9.204;2022-10-16T03:22:08;8.55;;;1.83;;
49502;SDS011;35409;48.776;9.204;2022-10-16T03:24:34;3.67;;;1.70;;
49502;SDS011;35409;48.776;9.204;2022-10-16T03:26:59;2.65;;;1.80;;
49502;SDS011;35409;48.776;9.204;2022-10-16T03:29:25;8.45;;;1.95;;
49502;SDS011;35409;48.776;9.204;2022-10-16T03:31:51;6.80;;;1.48;;
49502;SDS011;35409;48.776;9.204;2022-10-16T03:34:16;3.95;;;1.65;;
49502;SDS011;35409;48.776;9.204;2022-10-16T03:36:42;1.60;;;1.50;;
49502;SDS011;35409;48.776;9.204;2022-10-16T03:39:08;6.72;;;1.52;;
49502;SDS011;35409;48.776;9.204;2022-10-16T03:41:33;4.38;;;1.50;;
49502;SDS011;35409;48.776;9.204;2022-10-16T03:43:59;4.57;;;1.30;;
49502;SDS011;35409;48.776;9.204;2022-10-16T03:46:24;4.45;;;1.70;;
49502;SDS011;35409;48.776;9.204;2022-10-16T03:48:50;2.53;;;1.58;;
49502;SDS011;35409;48.776;9.204;2022-10-16T03:51:15;2.63;;;1.70;;
49502;SDS011;35409;48.776;9.204;2022-10-16T03:53:41;2.15;;;1.48;;
49502;SDS011;35409;48.776;9.204;2022-10-16T03:56:07;2.70;;;1.70;;
49502;SDS011;35409;48.776;9.204;2022-10-16T03:58:32;4.13;;;1.58;;
49502;SDS011;35409;48.776;9.204;2022-10-16T04:00:58;5.45;;;1.60;;
49502;SDS011;35409;48.776;9.204;2022-10-16T04:03:23;3.85;;;1.35;;
49502;SDS011;35409;48.776;9.204;2022-10-16T04:05:49;4.28;;;1.60;;
49502;SDS011;35409;48.776;9.204;2022-10-16T04:08:15;3.28;;;1.60;;
49502;SDS011;35409;48.776;9.204;2022-10-16T04:10:44;3.33;;;1.40;;
49502;SDS011;35409;48.776;9.204;2022-10-16T04:13:10;3.58;;;1.60;;
49502;SDS011;35409;48.776;9.204;2022-10-16T04:15:36;1.88;;;1.40;;
49502;SDS011;35409;48.776;9.204;2022-10-16T04:18:02;5.88;;;1.60;;
49502;SDS011;35409;48.776;9.204;2022-10-16T04:20:28;4.93;;;1.88;;
49502;SDS011;35409;48.776;9.204;2022-10-16T04:22:53;1.52;;;1.42;;
49502;SDS011;35409;48.776;9.204;2022-10-16T04:25:19;1.52;;;1.20;;
49502;SDS011;35409;48.776;9.204;2022-10-16T04:27:44;6.57;;;1.83;;
49502;SDS011;35409;48.776;9.204;2022-10-16T04:30:10;2.80;;;1.27;;
49502;SDS011;35409;48.776;9.204;2022-10-16T04:32:36;3.70;;;1.20;;
49502;SDS011;35409;48.776;9.204;2022-10-16T04:35:01;2.42;;;1.30;;
49502;SDS011;35409;48.776;9.204;2022-10-16T04:37:27;9.00;;;1.70;;
49502;SDS011;35409;48.776;9.204;2022-10-16T04:39:53;4.07;;;1.42;;
49502;SDS011;35409;48.776;9.204;2022-10-16T04:42:19;4.53;;;1.63;;
49502;SDS011;35409;48.776;9.204;2022-10-16T04:44:45;2.83;;;1.45;;
49502;SDS011;35409;48.776;9.204;2022-10-16T04:47:12;2.67;;;1.60;;
49502;SDS011;35409;48.776;9.204;2022-10-16T04:49:38;3.70;;;1.42;;
49502;SDS011;35409;48.776;9.204;2022-10-16T04:52:04;1.88;;;1.23;;
49502;SDS011;35409;48.776;9.204;2022-10-16T04:54:30;2.25;;;1.45;;
49502;SDS011;35409;48.776;9.204;2022-10-16T04:56:55;1.73;;;1.55;;
49502;SDS011;35409;48.776;9.204;2022-10-16T04:59:21;1.55;;;1.38;;
49502;SDS011;35409;48.776;9.204;2022-10-16T05:01:47;3.10;;;1.33;;
49502;SDS011;35409;48.776;9.204;2022-10-16T05:04:13;5.18;;;1.60;;
49502;SDS011;35409;48.776;9.204;2022-10-16T05:06:40;5.10;;;1.50;;
49502;SDS011;35409;48.776;9.204;2022-10-16T05:09:06;3.95;;;1.60;;
49502;SDS011;35409;48.776;9.204;2022-10-16T05:11:33;2.80;;;1.52;;
49502;SDS011;35409;48.776;9.204;2022-10-16T05:13:59;2.15;;;1.30;;
49502;SDS011;35409;48.776;9.204;2022-10-16T05:16:25;2.50;;;1.27;;
49502;SDS011;35409;48.776;9.204;2022-10-16T05:18:51;2.35;;;1.40;;
49502;SDS011;35409;48.776;9.204;2022-10-16T05:21:17;2.92;;;1.65;;
49502;SDS011;35409;48.776;9.204;2022-10-16T05:23:43;13.63;;;1.95;;
49502;SDS011;35409;48.776;9.204;2022-10-16T05:26:09;4.03;;;1.52;;
49502;SDS011;35409;48.776;9.204;2022-10-16T05:28:34;3.78;;;1.40;;
49502;SDS011;35409;48.776;9.204;2022-10-16T05:31:03;3.85;;;1.40;;
49502;SDS011;35409;48.776;9.204;2022-10-16T05:33:32;4.63;;;1.80;;
49502;SDS011;35409;48.776;9.204;2022-10-16T05:36:02;5.00;;;1.70;;
49502;SDS011;35409;48.776;9.204;2022-10-16T05:38:28;3.78;;;1.55;;
49502;SDS011;35409;48.776;9.204;2022-10-16T05:40:54;2.15;;;1.88;;
49502;SDS011;35409;48.776;9.204;2022-10-16T05:43:19;3.70;;;1.80;;
49502;SDS011;35409;48.776;9.204;2022-10-16T05:45:53;2.92;;;1.88;;
49502;SDS011;35409;48.776;9.204;2022-10-16T05:48:23;5.18;;;2.00;;
49502;SDS011;35409;48.776;9.204;2022-10-16T05:50:55;4.78;;;1.63;;
49502;SDS011;35409;48.776;9.204;2022-10-16T05:53:26;1.85;;;1.48;;
49502;SDS011;35409;48.776;9.204;2022-10-16T05:55:53;3.45;;;1.33;;
49502;SDS011;35409;48.776;9.204;2022-10-16T05:58:19;4.93;;;1.77;;
49502;SDS011;35409;48.776;9.204;2022-10-16T06:00:52;3.80;;;1.80;;
49502;SDS011;35409;48.776;9.204;2022-10-16T06:03:21;4.03;;;1.80;;
49502;SDS011;35409;48.776;9.204;2022-10-16T06:05:47;3.97;;;1.42;;
49502;SDS011;35409;48.776;9.204;2022-10-16T06:08:13;11.65;;;1.98;;
49502;SDS011;35409;48.776;9.204;2022-10-16T06:10:39;3.53;;;1.80;;
49502;SDS011;35409;48.776;9.204;2022-10-16T06:13:04;2.90;;;1.65;;
49502;SDS011;35409;48.776;9.204;2022-10-16T06:15:30;7.28;;;1.63;;
49502;SDS011;35409;48.776;9.204;2022-10-16T06:17:55;2.65;;;1.20;;
49502;SDS011;35409;48.776;9.204;2022-10-16T06:20:21;2.40;;;1.70;;
49502;SDS011;35409;48.776;9.204;2022-10-16T06:22:47;2.53;;;1.60;;
49502;SDS011;35409;48.776;9.204;2022-10-16T06:25:12;4.22;;;2.33;;
49502;SDS011;35409;48.776;9.204;2022-10-16T06:27:41;3.70;;;1.35;;
49502;SDS011;35409;48.776;9.204;2022-10-16T06:30:07;4.10;;;1.67;;
49502;SDS011;35409;48.776;9.204;2022-10-16T06:32:33;2.42;;;1.55;;
49502;SDS011;35409;48.776;9.204;2022-10-16T06:35:00;3.83;;;1.83;;
49502;SDS011;35409;48.776;9.204;2022-10-16T06:37:26;1.65;;;1.40;;
49502;SDS011;35409;48.776;9.204;2022-10-16T06:39:52;1.83;;;1.50;;
49502;SDS011;35409;48.776;9.204;2022-10-16T06:42:17;5.10;;;1.52;;
49502;SDS011;35409;48.776;9.204;2022-10-16T06:44:44;6.18;;;1.60;;
49502;SDS011;35409;48.776;9.204;2022-10-16T06:47:10;4.75;;;1.48;;
49502;SDS011;35409;48.776;9.204;2022-10-16T06:49:35;2.35;;;1.52;;
49502;SDS011;35409;48.776;9.204;2022-10-16T06:52:01;3.65;;;1.80;;
49502;SDS011;35409;48.776;9.204;2022-10-16T06:54:27;4.40;;;1.40;;
49502;SDS011;35409;48.776;9.204;2022-10-16T06:56:53;3.72;;;1.80;;
49502;SDS011;35409;48.776;9.204;2022-10-16T06:59:19;3.45;;;1.65;;
49502;SDS011;35409;48.776;9.204;2022-10-16T07:01:48;2.75;;;1.42;;
49502;SDS011;35409;48.776;9.204;2022-10-16T07:04:13;4.97;;;1.77;;
49502;SDS011;35409;48.776;9.204;2022-10-16T07:06:39;4.05;;;1.70;;
49502;SDS011;35409;48.776;9.204;2022-10-16T07:09:06;33.42;;;15.35;;
49502;SDS011;35409;48.776;9.204;2022-10-16T07:11:34;38.60;;;17.80;;
49502;SDS011;35409;48.776;9.204;2022-10-16T07:14:01;14.20;;;4.82;;
49502;SDS011;35409;48.776;9.204;2022-10-16T07:16:28;7.10;;;2.40;;
49502;SDS011;35409;48.776;9.204;2022-10-16T07:18:56;4.80;;;2.40;;
49502;SDS011;35409;48.776;9.204;2022-10-16T07:21:24;6.82;;;2.03;;
49502;SDS011;35409;48.776;9.204;2022-10-16T07:23:55;3.03;;;2.08;;
49502;SDS011;35409;48.776;9.204;2022-10-16T07:26:23;5.45;;;2.10;;
49502;SDS011;35409;48.776;9.204;2022-10-16T07:28:49;8.38;;;2.35;;
49502;SDS011;35409;48.776;9.204;2022-10-16T07:31:15;4.43;;;2.45;;
49502;SDS011;35409;48.776;9.204;2022-10-16T07:33:42;3.78;;;2.28;;
49502;SDS011;35409;48.776;9.204;2022-10-16T07:36:09;4.63;;;2.35;;
49502;SDS011;35409;48.776;9.204;2022-10-16T07:38:35;4.18;;;2.40;;
49502;SDS011;35409;48.776;9.204;2022-10-16T07:41:02;3.38;;;2.40;;
49502;SDS011;35409;48.776;9.204;2022-10-16T07:43:29;3.65;;;2.38;;
49502;SDS011;35409;48.776;9.204;2022-10-16T07:45:55;4.20;;;2.35;;
49502;SDS011;35409;48.776;9.204;2022-10-16T07:48:21;3.53;;;2.63;;
49502;SDS011;35409;48.776;9.204;2022-10-16T07:50:47;6.82;;;2.60;;
49502;SDS011;35409;48.776;9.204;2022-10-16T07:53:13;3.53;;;2.50;;
49502;SDS011;35409;48.776;9.204;2022-10-16T07:55:39;3.90;;;2.50;;
49502;SDS011;35409;48.776;9.204;2022-10-16T07:58:05;3.10;;;2.60;;
49502;SDS011;35409;48.776;9.204;2022-10-16T08:00:31;4.20;;;2.22;;
49502;SDS011;35409;48.776;9.204;2022-10-16T08:02:58;3.53;;;2.40;;
49502;SDS011;35409;48.776;9.204;2022-10-16T08:05:30;9.02;;;2.40;;
49502;SDS011;35409;48.776;9.204;2022-10-16T08:07:57;3.80;;;2.60;;
49502;SDS011;35409;48.776;9.204;2022-10-16T08:10:24;4.65;;;2.47;;
49502;SDS011;35409;48.776;9.204;2022-10-16T08:12:51;3.88;;;2.63;;
49502;SDS011;35409;48.776;9.204;2022-10-16T08:15:17;10.80;;;2.72;;
49502;SDS011;35409;48.776;9.204;2022-10-16T08:17:43;14.23;;;3.00;;
49502;SDS011;35409;48.776;9.204;2022-10-16T08:20:09;6.60;;;2.28;;
49502;SDS011;35409;48.776;9.204;2022-10-16T08:22:35;7.75;;;2.90;;
49502;SDS011;35409;48.776;9.204;2022-10-16T08:25:01;8.75;;;2.42;;
49502;SDS011;35409;48.776;9.204;2022-10-16T08:27:31;7.78;;;2.08;;
49502;SDS011;35409;48.776;9.204;2022-10-16T08:32:23;3.13;;;2.15;;
49502;SDS011;35409;48.776;9.204;2022-10-16T08:34:48;7.90;;;2.60;;
49502;SDS011;35409;48.776;9.204;2022-10-16T08:37:14;13.85;;;2.60;;
49502;SDS011;35409;48.776;9.204;2022-10-16T08:39:40;6.15;;;2.22;;
49502;SDS011;35409;48.776;9.204;2022-10-16T08:43:07;4.60;;;2.40;;
49502;SDS011;35409;48.776;9.204;2022-10-16T08:50:30;6.10;;;1.40;;
49502;SDS011;35409;48.776;9.204;2022-10-16T08:52:57;8.20;;;1.80;;
49502;SDS011;35409;48.776;9.204;2022-10-16T08:55:31;5.43;;;2.10;;
49502;SDS011;35409;48.776;9.204;2022-10-16T08:58:21;6.88;;;1.70;;
49502;SDS011;35409;48.776;9.204;2022-10-16T09:00:55;4.25;;;1.88;;
49502;SDS011;35409;48.776;9.204;2022-10-16T09:09:28;5.03;;;1.40;;
49502;SDS011;35409;48.776;9.204;2022-10-16T09:19:53;3.78;;;1.38;;
49502;SDS011;35409;48.776;9.204;2022-10-16T09:22:28;4.15;;;1.67;;
49502;SDS011;35409;48.776;9.204;2022-10-16T09:24:58;5.78;;;1.40;;
49502;SDS011;35409;48.776;9.204;2022-10-16T09:27:26;3.47;;;1.67;;
49502;SDS011;35409;48.776;9.204;2022-10-16T09:29:51;4.20;;;1.60;;
49502;SDS011;35409;48.776;9.204;2022-10-16T09:32:18;4.10;;;1.40;;
49502;SDS011;35409;48.776;9.204;2022-10-16T09:34:47;1.40;;;1.30;;
49502;SDS011;35409;48.776;9.204;2022-10-16T09:37:21;1.58;;;1.17;;
49502;SDS011;35409;48.776;9.204;2022-10-16T09:39:50;3.60;;;1.70;;
49502;SDS011;35409;48.776;9.204;2022-10-16T09:42:17;4.28;;;1.25;;
49502;SDS011;35409;48.776;9.204;2022-10-16T09:44:51;3.67;;;1.67;;
49502;SDS011;35409;48.776;9.204;2022-10-16T09:47:19;4.47;;;1.58;;
49502;SDS011;35409;48.776;9.204;2022-10-16T09:50:05;5.55;;;1.42;;
49502;SDS011;35409;48.776;9.204;2022-10-16T09:52:47;5.93;;;1.55;;
49502;SDS011;35409;48.776;9.204;2022-10-16T09:55:16;1.98;;;1.05;;
49502;SDS011;35409;48.776;9.204;2022-10-16T09:57:52;2.30;;;1.20;;
49502;SDS011;35409;48.776;9.204;2022-10-16T10:00:23;2.42;;;1.70;;
49502;SDS011;35409;48.776;9.204;2022-10-16T10:05:22;3.35;;;1.65;;
49502;SDS011;35409;48.776;9.204;2022-10-16T10:07:56;11.45;;;8.40;;
49502;SDS011;35409;48.776;9.204;2022-10-16T10:10:30;3.60;;;1.63;;
49502;SDS011;35409;48.776;9.204;2022-10-16T10:12:59;4.25;;;1.42;;
49502;SDS011;35409;48.776;9.204;2022-10-16T10:15:25;3.45;;;1.67;;
49502;SDS011;35409;48.776;9.204;2022-10-16T10:17:55;4.93;;;1.50;;
49502;SDS011;35409;48.776;9.204;2022-10-16T10:20:29;1.55;;;1.42;;
49502;SDS011;35409;48.776;9.204;2022-10-16T10:22:59;6.85;;;2.85;;
49502;SDS011;35409;48.776;9.204;2022-10-16T10:26:02;4.07;;;1.60;;
49502;SDS011;35409;48.776;9.204;2022-10-16T10:28:28;1.40;;;1.27;;
49502;SDS011;35409;48.776;9.204;2022-10-16T10:50:03;4.32;;;1.73;;
49502;SDS011;35409;48.776;9.204;2022-10-16T11:08:36;1.67;;;1.52;;
49502;SDS011;35409;48.776;9.204;2022-10-16T11:11:09;5.50;;;2.30;;
49502;SDS011;35409;48.776;9.204;2022-10-16T11:13:56;2.00;;;1.52;;
49502;SDS011;35409;48.776;9.204;2022-10-16T11:16:29;5.63;;;1.50;;
49502;SDS011;35409;48.776;9.204;2022-10-16T11:21:39;2.27;;;1.63;;
49502;SDS011;35409;48.776;9.204;2022-10-16T11:24:35;3.95;;;1.50;;
49502;SDS011;35409;48.776;9.204;2022-10-16T11:27:08;1.60;;;1.50;;
49502;SDS011;35409;48.776;9.204;2022-10-16T11:29:39;2.38;;;1.50;;
49502;SDS011;35409;48.776;9.204;2022-10-16T11:32:28;2.75;;;1.40;;
49502;SDS011;35409;48.776;9.204;2022-10-16T11:35:05;3.15;;;1.48;;
49502;SDS011;35409;48.776;9.204;2022-10-16T11:37:41;4.95;;;1.55;;
49502;SDS011;35409;48.776;9.204;2022-10-16T11:40:22;4.50;;;1.67;;
49502;SDS011;35409;48.776;9.204;2022-10-16T11:43:04;3.92;;;1.23;;
49502;SDS011;35409;48.776;9.204;2022-10-16T11:45:42;2.22;;;1.35;;
49502;SDS011;35409;48.776;9.204;2022-10-16T11:51:18;4.32;;;1.42;;
49502;SDS011;35409;48.776;9.204;2022-10-16T11:56:27;3.30;;;1.88;;
49502;SDS011;35409;48.776;9.204;2022-10-16T12:01:48;4.53;;;1.55;;
49502;SDS011;35409;48.776;9.204;2022-10-16T12:07:56;3.13;;;1.10;;
49502;SDS011;35409;48.776;9.204;2022-10-16T12:09:52;4.00;;;1.30;;
49502;SDS011;35409;48.776;9.204;2022-10-16T12:12:36;1.45;;;1.13;;
49502;SDS011;35409;48.776;9.204;2022-10-16T12:17:58;3.53;;;1.40;;
49502;SDS011;35409;48.776;9.204;2022-10-16T12:20:30;1.83;;;1.20;;
49502;SDS011;35409;48.776;9.204;2022-10-16T12:23:02;3.72;;;1.10;;
49502;SDS011;35409;48.776;9.204;2022-10-16T12:25:38;5.05;;;1.70;;
49502;SDS011;35409;48.776;9.204;2022-10-16T12:30:40;2.00;;;0.98;;
49502;SDS011;35409;48.776;9.204;2022-10-16T12:35:57;5.53;;;1.20;;
49502;SDS011;35409;48.776;9.204;2022-10-16T12:41:03;3.10;;;1.50;;
49502;SDS011;35409;48.776;9.204;2022-10-16T12:48:40;1.63;;;1.10;;
49502;SDS011;35409;48.776;9.204;2022-10-16T12:51:12;4.57;;;1.17;;
49502;SDS011;35409;48.776;9.204;2022-10-16T13:10:40;6.47;;;1.40;;
49502;SDS011;35409;48.776;9.204;2022-10-16T13:16:04;2.33;;;1.08;;
49502;SDS011;35409;48.776;9.204;2022-10-16T13:27:05;5.82;;;1.90;;
49502;SDS011;35409;48.776;9.204;2022-10-16T13:29:48;2.20;;;1.08;;
49502;SDS011;35409;48.776;9.204;2022-10-16T13:32:20;3.17;;;1.20;;
49502;SDS011;35409;48.776;9.204;2022-10-16T13:34:47;1.15;;;1.05;;
49502;SDS011;35409;48.776;9.204;2022-10-16T13:37:31;4.68;;;1.17;;
49502;SDS011;35409;48.776;9.204;2022-10-16T13:40:18;3.55;;;1.60;;
49502;SDS011;35409;48.776;9.204;2022-10-16T13:42:46;2.03;;;1.77;;
49502;SDS011;35409;48.776;9.204;2022-10-16T13:45:19;6.35;;;2.47;;
49502;SDS011;35409;48.776;9.204;2022-10-16T13:47:46;3.00;;;1.67;;
49502;SDS011;35409;48.776;9.204;2022-10-16T13:50:12;2.33;;;1.70;;
49502;SDS011;35409;48.776;9.204;2022-10-16T13:52:42;1.80;;;1.63;;
49502;SDS011;35409;48.776;9.204;2022-10-16T13:55:15;2.50;;;1.58;;
49502;SDS011;35409;48.776;9.204;2022-10-16T13:57:43;2.08;;;1.35;;
49502;SDS011;35409;48.776;9.204;2022-10-16T14:00:25;2.20;;;1.60;;
49502;SDS011;35409;48.776;9.204;2022-10-16T14:03:04;1.63;;;1.25;;
49502;SDS011;35409;48.776;9.204;2022-10-16T14:05:32;2.40;;;1.80;;
49502;SDS011;35409;48.776;9.204;2022-10-16T14:07:59;1.98;;;1.17;;
49502;SDS011;35409;48.776;9.204;2022-10-16T14:10:29;4.18;;;3.78;;
49502;SDS011;35409;48.776;9.204;2022-10-16T14:13:00;2.75;;;2.47;;
49502;SDS011;35409;48.776;9.204;2022-10-16T14:15:31;2.40;;;1.88;;
49502;SDS011;35409;48.776;9.204;2022-10-16T14:17:58;5.20;;;3.47;;
49502;SDS011;35409;48.776;9.204;2022-10-16T14:20:25;7.55;;;4.03;;
49502;SDS011;35409;48.776;9.204;2022-10-16T14:23:01;5.97;;;3.08;;
49502;SDS011;35409;48.776;9.204;2022-10-16T14:30:48;3.70;;;2.30;;
49502;SDS011;35409;48.776;9.204;2022-10-16T14:36:13;4.28;;;1.85;;
49502;SDS011;35409;48.776;9.204;2022-10-16T14:38:40;3.88;;;1.70;;
49502;SDS011;35409;48.776;9.204;2022-10-16T14:41:12;3.20;;;1.40;;
49502;SDS011;35409;48.776;9.204;2022-10-16T14:43:41;1.73;;;1.20;;
49502;SDS011;35409;48.776;9.204;2022-10-16T14:46:28;2.17;;;1.45;;
49502;SDS011;35409;48.776;9.204;2022-10-16T14:51:33;5.50;;;2.25;;
49502;SDS011;35409;48.776;9.204;2022-10-16T14:53:59;3.28;;;2.20;;
49502;SDS011;35409;48.776;9.204;2022-10-16T14:56:28;7.00;;;3.53;;
49502;SDS011;35409;48.776;9.204;2022-10-16T14:58:55;12.67;;;9.50;;
49502;SDS011;35409;48.776;9.204;2022-10-16T15:01:22;6.25;;;4.55;;
49502;SDS011;35409;48.776;9.204;2022-10-16T15:03:48;5.80;;;2.60;;
49502;SDS011;35409;48.776;9.204;2022-10-16T15:06:14;7.65;;;4.53;;
49502;SDS011;35409;48.776;9.204;2022-10-16T15:08:41;12.65;;;4.20;;
49502;SDS011;35409;48.776;9.204;2022-10-16T15:11:11;4.97;;;2.90;;
49502;SDS011;35409;48.776;9.204;2022-10-16T15:13:39;4.40;;;2.33;;
49502;SDS011;35409;48.776;9.204;2022-10-16T15:16:06;2.42;;;2.05;;
49502;SDS011;35409;48.776;9.204;2022-10-16T15:18:36;7.13;;;3.17;;
49502;SDS011;35409;48.776;9.204;2022-10-16T15:21:02;8.68;;;5.30;;
49502;SDS011;35409;48.776;9.204;2022-10-16T15:23:27;6.90;;;3.10;;
49502;SDS011;35409;48.776;9.204;2022-10-16T15:25:54;4.60;;;3.53;;
49502;SDS011;35409;48.776;9.204;2022-10-16T15:28:20;3.20;;;2.50;;
49502;SDS011;35409;48.776;9.204;2022-10-16T15:30:55;5.63;;;2.83;;
49502;SDS011;35409;48.776;9.204;2022-10-16T15:33:22;3.38;;;2.42;;
49502;SDS011;35409;48.776;9.204;2022-10-16T15:35:52;6.75;;;2.95;;
49502;SDS011;35409;48.776;9.204;2022-10-16T15:38:18;2.47;;;2.10;;
49502;SDS011;35409;48.776;9.204;2022-10-16T15:40:45;5.50;;;2.65;;
49502;SDS011;35409;48.776;9.204;2022-10-16T15:43:12;5.38;;;3.72;;
49502;SDS011;35409;48.776;9.204;2022-10-16T15:45:37;3.83;;;2.20;;
49502;SDS011;35409;48.776;9.204;2022-10-16T15:48:03;2.65;;;2.40;;
49502;SDS011;35409;48.776;9.204;2022-10-16T15:50:30;5.30;;;2.05;;
49502;SDS011;35409;48.776;9.204;2022-10-16T15:52:56;4.65;;;1.92;;
49502;SDS011;35409;48.776;9.204;2022-10-16T15:55:22;8.02;;;1.55;;
49502;SDS011;35409;48.776;9.204;2022-10-16T15:57:48;2.83;;;2.08;;
49502;SDS011;35409;48.776;9.204;2022-10-16T16:00:15;3.38;;;2.53;;
49502;SDS011;35409;48.776;9.204;2022-10-16T16:02:42;8.95;;;2.58;;
49502;SDS011;35409;48.776;9.204;2022-10-16T16:05:09;3.65;;;2.30;;
49502;SDS011;35409;48.776;9.204;2022-10-16T16:07:36;3.80;;;2.30;;
49502;SDS011;35409;48.776;9.204;2022-10-16T16:10:04;9.98;;;2.75;;
49502;SDS011;35409;48.776;9.204;2022-10-16T16:12:32;5.65;;;2.17;;
49502;SDS011;35409;48.776;9.204;2022-10-16T16:14:58;5.32;;;2.45;;
49502;SDS011;35409;48.776;9.204;2022-10-16T16:17:24;7.25;;;2.45;;
49502;SDS011;35409;48.776;9.204;2022-10-16T16:19:50;3.05;;;2.10;;
49502;SDS011;35409;48.776;9.204;2022-10-16T16:22:16;6.78;;;2.72;;
49502;SDS011;35409;48.776;9.204;2022-10-16T16:24:42;3.35;;;2.35;;
49502;SDS011;35409;48.776;9.204;2022-10-16T16:27:07;3.92;;;2.72;;
49502;SDS011;35409;48.776;9.204;2022-10-16T16:29:33;5.85;;;2.50;;
49502;SDS011;35409;48.776;9.204;2022-10-16T16:31:59;11.35;;;3.00;;
49502;SDS011;35409;48.776;9.204;2022-10-16T16:34:28;8.38;;;3.30;;
49502;SDS011;35409;48.776;9.204;2022-10-16T16:36:55;9.43;;;3.33;;
49502;SDS011;35409;48.776;9.204;2022-10-16T16:39:21;16.48;;;4.53;;
49502;SDS011;35409;48.776;9.204;2022-10-16T16:41:47;12.75;;;5.78;;
49502;SDS011;35409;48.776;9.204;2022-10-16T16:44:14;10.27;;;6.03;;
49502;SDS011;35409;48.776;9.204;2022-10-16T16:46:40;12.38;;;4.25;;
49502;SDS011;35409;48.776;9.204;2022-10-16T16:49:08;6.85;;;3.47;;
49502;SDS011;35409;48.776;9.204;2022-10-16T16:51:37;10.48;;;3.50;;
49502;SDS011;35409;48.776;9.204;2022-10-16T16:54:04;6.68;;;3.38;;
49502;SDS011;35409;48.776;9.204;2022-10-16T16:56:31;10.73;;;3.45;;
49502;SDS011;35409;48.776;9.204;2022-10-16T16:58:57;5.00;;;3.75;;
49502;SDS011;35409;48.776;9.204;2022-10-16T17:01:23;7.20;;;3.45;;
49502;SDS011;35409;48.776;9.204;2022-10-16T17:03:51;8.02;;;4.35;;
49502;SDS011;35409;48.776;9.204;2022-10-16T17:06:18;11.65;;;5.05;;
49502;SDS011;35409;48.776;9.204;2022-10-16T17:08:45;12.85;;;5.85;;
49502;SDS011;35409;48.776;9.204;2022-10-16T17:11:15;10.43;;;4.72;;
49502;SDS011;35409;48.776;9.204;2022-10-16T17:13:43;4.35;;;3.40;;
49502;SDS011;35409;48.776;9.204;2022-10-16T17:16:09;7.55;;;3.30;;
49502;SDS011;35409;48.776;9.204;2022-10-16T17:18:35;9.90;;;4.60;;
49502;SDS011;35409;48.776;9.204;2022-10-16T17:21:03;10.60;;;5.00;;
49502;SDS011;35409;48.776;9.204;2022-10-16T17:23:33;15.82;;;4.57;;